Time;durP1;ratioP1;P1;durP2;ratioP2;P2;SDS_P1;SDS_P2;PMS_P1;PMS_P2;Temp;Humidity;BMP_temperature;BMP_pressure;BME280_temperature;BME280_humidity;BME280_pressure;Samples;Min_cycle;Max_cycle;Signal;HPM_P1;HPM_P2
2023/03/30 00:00:44;;;;;;;15.40;13.75;;;11.10;99.90;;;;;;7369883;19;20021;-67
2023/03/30 00:03:11;;;;;;;15.05;12.90;;;11.10;99.90;;;;;;7372136;19;20026;-66
2023/03/30 00:05:38;;;;;;;14.75;13.15;;;11.10;99.90;;;;;;7371227;19;20126;-67
2023/03/30 00:08:05;;;;;;;17.02;12.80;;;11.10;99.90;;;;;;7371275;19;20102;-67
2023/03/30 00:10:31;;;;;;;16.60;12.90;;;11.20;99.90;;;;;;7367774;19;20014;-67
2023/03/30 00:12:57;;;;;;;13.43;11.38;;;11.30;99.90;;;;;;7367988;19;20014;-67
2023/03/30 00:15:24;;;;;;;12.73;11.43;;;11.30;99.90;;;;;;7367807;19;20022;-67
2023/03/30 00:17:53;;;;;;;16.48;11.35;;;11.30;99.90;;;;;;7369463;19;20042;-68
2023/03/30 00:20:20;;;;;;;14.38;11.38;;;11.40;99.90;;;;;;7369081;19;20120;-67
2023/03/30 00:22:47;;;;;;;14.43;11.45;;;11.30;99.90;;;;;;7366519;19;20505;-67
2023/03/30 00:25:16;;;;;;;13.27;10.18;;;11.40;99.90;;;;;;7368426;19;20051;-67
2023/03/30 00:27:43;;;;;;;15.70;10.13;;;11.40;99.90;;;;;;7367504;19;20010;-67
2023/03/30 00:30:14;;;;;;;16.70;11.02;;;11.40;99.90;;;;;;7368591;19;20014;-67
2023/03/30 00:32:41;;;;;;;11.43;9.57;;;11.40;99.90;;;;;;7370630;19;20090;-67
2023/03/30 00:35:09;;;;;;;13.90;10.27;;;11.30;99.90;;;;;;7367426;19;20015;-68
2023/03/30 00:37:36;;;;;;;11.38;9.77;;;11.30;99.90;;;;;;7364871;19;20018;-67
2023/03/30 00:40:08;;;;;;;14.95;9.90;;;11.20;99.90;;;;;;7369065;19;20010;-68
2023/03/30 00:42:35;;;;;;;15.55;10.68;;;11.20;99.90;;;;;;7369067;19;20015;-68
2023/03/30 00:45:16;;;;;;;13.32;9.85;;;11.20;99.90;;;;;;7368796;19;20010;-67
2023/03/30 00:48:05;;;;;;;13.95;9.23;;;11.10;99.90;;;;;;7370442;19;20018;-68
2023/03/30 00:50:39;;;;;;;14.07;8.57;;;11.10;99.90;;;;;;7372123;19;20211;-67
2023/03/30 00:53:23;;;;;;;12.65;9.98;;;11.10;99.90;;;;;;7368703;19;20041;-67
2023/03/30 00:55:52;;;;;;;13.32;9.70;;;11.10;99.90;;;;;;7369211;19;20018;-67
2023/03/30 00:58:20;;;;;;;14.23;9.77;;;11.00;99.90;;;;;;7368319;19;20018;-67
2023/03/30 01:00:47;;;;;;;12.57;9.23;;;11.10;99.90;;;;;;7367170;19;20018;-67
2023/03/30 01:03:22;;;;;;;14.30;9.13;;;11.10;99.90;;;;;;7369431;19;20015;-67
2023/03/30 01:05:51;;;;;;;12.55;8.60;;;11.20;99.90;;;;;;7362057;19;20070;-68
2023/03/30 01:08:18;;;;;;;15.32;9.65;;;11.20;99.90;;;;;;7366698;19;20019;-67
2023/03/30 01:10:46;;;;;;;10.18;7.97;;;11.10;99.90;;;;;;7365478;19;20542;-67
2023/03/30 01:13:13;;;;;;;12.90;8.77;;;11.20;99.90;;;;;;7368006;19;20043;-69
2023/03/30 01:15:55;;;;;;;13.82;8.95;;;11.20;99.90;;;;;;7366770;19;20014;-66
2023/03/30 01:18:39;;;;;;;;;;;11.20;99.90;;;;;;7367949;19;20023;-65
2023/03/30 01:21:26;;;;;;;11.82;8.00;;;11.20;99.90;;;;;;7365965;19;20358;-67
2023/03/30 01:24:08;;;;;;;13.07;9.45;;;11.10;99.90;;;;;;7368819;19;20014;-67
2023/03/30 01:27:13;;;;;;;14.85;9.40;;;11.10;99.90;;;;;;7366017;19;20050;-68
2023/03/30 01:29:52;;;;;;;15.13;9.65;;;11.10;99.90;;;;;;7366663;19;22308;-68
2023/03/30 01:32:50;;;;;;;12.43;9.82;;;11.10;99.90;;;;;;7368919;19;20022;-68
2023/03/30 01:35:32;;;;;;;11.55;8.85;;;11.10;99.90;;;;;;7368416;19;20018;-67
2023/03/30 01:38:37;;;;;;;12.00;8.80;;;11.10;99.90;;;;;;7369367;19;20620;-68
2023/03/30 01:41:08;;;;;;;11.73;9.60;;;11.20;99.90;;;;;;7366032;19;20023;-68
2023/03/30 01:43:34;;;;;;;;;;;11.20;99.90;;;;;;7370921;19;20415;-68
2023/03/30 01:46:10;;;;;;;13.02;9.10;;;11.30;99.90;;;;;;7367231;19;19931;-68
2023/03/30 01:48:52;;;;;;;12.65;8.85;;;11.40;99.90;;;;;;7375245;19;20486;-67
2023/03/30 01:51:28;;;;;;;16.73;8.88;;;11.30;99.90;;;;;;7372360;19;20011;-68
2023/03/30 01:54:17;;;;;;;9.43;7.68;;;11.40;99.90;;;;;;7373620;19;20022;-68
2023/03/30 01:56:53;;;;;;;13.18;7.80;;;11.60;99.90;;;;;;7377232;19;20018;-67
2023/03/30 02:00:00;;;;;;;13.07;9.07;;;11.60;99.90;;;;;;7371816;19;20574;-66
2023/03/30 02:02:29;;;;;;;14.77;8.07;;;11.60;99.90;;;;;;7372457;19;20014;-67
2023/03/30 02:04:59;;;;;;;12.85;8.57;;;11.50;99.90;;;;;;7374635;19;20021;-68
2023/03/30 02:07:31;;;;;;;11.43;9.15;;;11.40;99.90;;;;;;7373795;19;20368;-69
2023/03/30 02:10:02;;;;;;;13.13;8.70;;;11.40;99.90;;;;;;7375083;19;20395;-68
2023/03/30 02:12:29;;;;;;;12.52;9.05;;;11.30;99.90;;;;;;7372463;19;20372;-68
2023/03/30 02:15:03;;;;;;;11.20;8.20;;;11.30;99.90;;;;;;7365144;19;20015;-68
2023/03/30 02:17:30;;;;;;;11.73;8.27;;;11.30;99.90;;;;;;7373412;19;20029;-68
2023/03/30 02:19:58;;;;;;;11.50;7.70;;;11.30;99.90;;;;;;7372709;19;20093;-68
2023/03/30 02:22:26;;;;;;;9.30;7.68;;;11.30;99.90;;;;;;7370915;19;20351;-67
2023/03/30 02:24:54;;;;;;;11.80;7.88;;;11.30;99.90;;;;;;7370457;19;20010;-67
2023/03/30 02:27:26;;;;;;;12.82;7.65;;;11.30;99.90;;;;;;7373699;19;20510;-68
2023/03/30 02:29:55;;;;;;;9.93;7.32;;;11.30;99.90;;;;;;7370579;19;20015;-68
2023/03/30 02:32:25;;;;;;;10.98;7.85;;;11.30;99.90;;;;;;7369537;19;20049;-67
2023/03/30 02:35:14;;;;;;;11.35;7.85;;;11.30;99.90;;;;;;7370012;19;20026;-67
2023/03/30 02:38:24;;;;;;;9.70;6.50;;;11.30;99.90;;;;;;7365241;19;20014;-68
2023/03/30 02:41:13;;;;;;;12.57;8.27;;;11.30;99.90;;;;;;7371554;19;20026;-67
2023/03/30 02:43:51;;;;;;;12.60;7.78;;;11.30;99.90;;;;;;7375108;19;20069;-68
2023/03/30 02:46:36;;;;;;;9.25;7.68;;;11.30;99.90;;;;;;7364357;19;20082;-68
2023/03/30 02:49:17;;;;;;;11.35;7.40;;;11.20;99.90;;;;;;7371347;19;20783;-68
2023/03/30 02:52:00;;;;;;;10.40;7.38;;;11.20;99.90;;;;;;7371796;19;20029;-68
2023/03/30 02:54:57;;;;;;;10.27;7.32;;;11.20;99.90;;;;;;7371102;19;20022;-68
2023/03/30 02:58:11;;;;;;;8.90;6.20;;;11.20;99.90;;;;;;7372799;19;20010;-67
2023/03/30 03:01:03;;;;;;;12.63;6.47;;;11.30;99.90;;;;;;7372244;19;20046;-67
2023/03/30 03:03:46;;;;;;;10.45;6.20;;;11.40;99.90;;;;;;7372333;19;20583;-68
2023/03/30 03:06:14;;;;;;;10.45;5.70;;;11.40;99.90;;;;;;7368244;19;20017;-68
2023/03/30 03:08:48;;;;;;;;;;;11.50;99.90;;;;;;7371440;19;20113;-68
2023/03/30 03:11:22;;;;;;;10.73;5.80;;;11.40;99.90;;;;;;7372313;19;19994;-68
2023/03/30 03:13:48;;;;;;;8.07;5.15;;;11.50;99.90;;;;;;7371227;19;20022;-67
2023/03/30 03:16:15;;;;;;;8.57;4.90;;;11.40;99.90;;;;;;7365570;19;20014;-68
2023/03/30 03:18:57;;;;;;;8.10;5.00;;;11.40;99.90;;;;;;7371850;19;20532;-68
2023/03/30 03:21:23;;;;;;;8.35;4.80;;;11.30;99.90;;;;;;7372651;19;20493;-69
2023/03/30 03:23:50;;;;;;;8.55;4.53;;;11.50;99.90;;;;;;7373302;19;20053;-68
2023/03/30 03:26:21;;;;;;;8.95;4.30;;;11.70;99.90;;;;;;7369469;19;20746;-68
2023/03/30 03:28:47;;;;;;;8.60;4.30;;;11.80;99.90;;;;;;7369971;19;20022;-68
2023/03/30 03:31:15;;;;;;;9.40;5.30;;;11.90;99.90;;;;;;7367196;19;20019;-68
2023/03/30 03:33:41;;;;;;;9.43;4.47;;;11.90;99.90;;;;;;7370137;19;20379;-67
2023/03/30 03:36:25;;;;;;;8.82;4.43;;;12.00;99.90;;;;;;7369470;19;20390;-69
2023/03/30 03:38:52;;;;;;;7.07;4.07;;;12.10;99.90;;;;;;7372641;19;20850;-67
2023/03/30 03:41:19;;;;;;;7.63;4.28;;;12.10;99.90;;;;;;7370441;19;20967;-67
2023/03/30 03:43:45;;;;;;;9.35;4.25;;;12.20;99.90;;;;;;7372703;19;20023;-66
2023/03/30 03:46:13;;;;;;;8.13;4.57;;;12.20;99.90;;;;;;7369695;19;20356;-67
2023/03/30 03:48:40;;;;;;;6.55;3.67;;;12.30;99.90;;;;;;7369507;19;20026;-67
2023/03/30 03:51:08;;;;;;;13.52;5.10;;;12.40;99.90;;;;;;7370722;19;20026;-67
2023/03/30 03:53:35;;;;;;;9.82;4.60;;;12.40;99.90;;;;;;7369584;19;20083;-66
2023/03/30 03:56:05;;;;;;;7.57;4.40;;;12.50;99.90;;;;;;7369664;19;20026;-68
2023/03/30 03:58:32;;;;;;;7.28;3.85;;;12.60;99.90;;;;;;7369552;19;20097;-68
2023/03/30 04:00:59;;;;;;;9.85;3.67;;;12.60;99.90;;;;;;7372344;19;20026;-68
2023/03/30 04:03:29;;;;;;;12.43;3.97;;;12.60;99.90;;;;;;7368048;19;20010;-67
2023/03/30 04:05:59;;;;;;;9.70;3.67;;;12.70;99.90;;;;;;7370787;19;20786;-67
2023/03/30 04:08:27;;;;;;;9.63;3.20;;;12.80;99.90;;;;;;7367241;19;20019;-67
2023/03/30 04:10:54;;;;;;;8.68;3.40;;;12.80;99.90;;;;;;7371558;19;20039;-68
2023/03/30 04:13:37;;;;;;;8.55;3.40;;;12.80;99.90;;;;;;7369761;19;20018;-68
2023/03/30 04:16:07;;;;;;;10.45;3.88;;;12.90;99.90;;;;;;7367963;19;20032;-68
2023/03/30 04:18:51;;;;;;;8.90;3.63;;;12.90;99.90;;;;;;7372607;19;20054;-67
2023/03/30 04:21:34;;;;;;;6.80;3.97;;;12.80;99.90;;;;;;7368337;19;20018;-67
2023/03/30 04:24:21;;;;;;;9.30;3.70;;;12.80;99.90;;;;;;7365775;19;20366;-68
2023/03/30 04:27:08;;;;;;;6.70;3.53;;;12.80;99.90;;;;;;7363894;19;20945;-67
2023/03/30 04:30:05;;;;;;;9.05;4.03;;;12.70;99.90;;;;;;7365821;19;20028;-68
2023/03/30 04:33:01;;;;;;;8.77;4.15;;;12.70;99.90;;;;;;7370598;19;20007;-67
2023/03/30 04:35:54;;;;;;;11.45;4.40;;;12.50;99.90;;;;;;7369118;19;20723;-68
2023/03/30 04:39:02;;;;;;;9.13;4.20;;;12.10;99.90;;;;;;7369149;19;20280;-69
2023/03/30 04:41:53;;;;;;;11.10;5.03;;;12.00;99.90;;;;;;7371005;19;20028;-69
2023/03/30 04:44:45;;;;;;;9.73;4.80;;;11.60;99.90;;;;;;7369972;19;20049;-68
2023/03/30 04:47:21;;;;;;;10.48;5.53;;;11.50;99.90;;;;;;7368748;19;20834;-66
2023/03/30 04:50:14;;;;;;;13.07;5.30;;;11.40;99.90;;;;;;7366884;19;20015;-66
2023/03/30 04:52:59;;;;;;;7.90;5.15;;;11.40;99.90;;;;;;7368553;19;20786;-66
2023/03/30 04:55:49;;;;;;;6.97;4.85;;;11.30;99.90;;;;;;7367827;19;20031;-66
2023/03/30 04:58:30;;;;;;;9.57;5.40;;;11.30;99.90;;;;;;7369190;19;20018;-66
2023/03/30 05:01:23;;;;;;;12.07;5.47;;;11.20;99.90;;;;;;7360895;19;20336;-68
2023/03/30 05:04:16;;;;;;;10.35;5.93;;;11.20;99.90;;;;;;7365997;19;20079;-69
2023/03/30 05:07:02;;;;;;;11.98;5.93;;;11.20;99.90;;;;;;7357748;19;20064;-67
2023/03/30 05:09:43;;;;;;;8.60;5.30;;;11.20;99.90;;;;;;7365792;19;20370;-67
2023/03/30 05:12:18;;;;;;;10.93;6.07;;;11.30;99.90;;;;;;7366106;19;20015;-68
2023/03/30 05:15:17;;;;;;;11.95;5.47;;;11.30;99.90;;;;;;7363654;19;20054;-66
2023/03/30 05:18:12;;;;;;;9.25;5.10;;;11.30;99.90;;;;;;7359811;19;20090;-67
2023/03/30 05:20:49;;;;;;;9.25;4.72;;;11.40;99.90;;;;;;7359007;19;20026;-67
2023/03/30 05:23:44;;;;;;;14.32;5.80;;;11.50;99.90;;;;;;7361036;19;20533;-68
2023/03/30 05:26:45;;;;;;;8.80;4.60;;;11.40;99.90;;;;;;7361235;19;20025;-68
2023/03/30 05:29:47;;;;;;;10.90;5.47;;;11.40;99.90;;;;;;7359955;19;20025;-67
2023/03/30 05:32:40;;;;;;;11.88;6.05;;;11.40;99.90;;;;;;7360446;19;20923;-66
2023/03/30 05:35:25;;;;;;;10.43;5.63;;;11.40;99.90;;;;;;7366102;19;20010;-66
2023/03/30 05:37:53;;;;;;;11.60;5.20;;;11.40;99.90;;;;;;7373164;19;20022;-66
2023/03/30 05:40:39;;;;;;;10.35;5.60;;;11.40;99.90;;;;;;7369460;19;20352;-67
2023/03/30 05:43:24;;;;;;;11.48;5.03;;;11.40;99.90;;;;;;7372039;19;20021;-67
2023/03/30 05:46:08;;;;;;;9.38;4.50;;;11.60;99.90;;;;;;7374548;19;20039;-67
2023/03/30 05:48:49;;;;;;;8.80;4.60;;;11.70;99.90;;;;;;7372835;19;20370;-66
2023/03/30 05:51:38;;;;;;;9.02;5.00;;;11.80;99.90;;;;;;7374611;19;20830;-67
2023/03/30 05:54:17;;;;;;;7.28;4.25;;;11.80;99.90;;;;;;7370272;19;20403;-68
2023/03/30 05:56:53;;;;;;;10.38;3.70;;;11.80;99.90;;;;;;7372890;19;20746;-67
2023/03/30 05:59:32;;;;;;;7.85;4.00;;;11.90;99.90;;;;;;7373215;19;20025;-65
2023/03/30 06:02:05;;;;;;;9.05;4.15;;;11.80;99.90;;;;;;7372352;19;20018;-66
2023/03/30 06:04:32;;;;;;;14.23;4.95;;;11.80;99.90;;;;;;7372769;19;20022;-65
2023/03/30 06:07:00;;;;;;;8.93;4.28;;;11.70;99.90;;;;;;7372761;19;20010;-64
2023/03/30 06:09:27;;;;;;;8.05;4.38;;;11.50;99.90;;;;;;7371400;19;20018;-63
2023/03/30 06:11:59;;;;;;;9.68;4.68;;;11.60;99.90;;;;;;7371503;19;20019;-63
2023/03/30 06:14:29;;;;;;;10.60;4.18;;;11.50;99.90;;;;;;7370786;19;21006;-63
2023/03/30 06:17:24;;;;;;;9.93;4.45;;;11.50;99.90;;;;;;7373529;19;20042;-64
2023/03/30 06:19:55;;;;;;;10.95;4.97;;;11.40;99.90;;;;;;7376219;19;20481;-63
2023/03/30 06:22:22;;;;;;;9.40;4.70;;;11.40;99.90;;;;;;7371301;19;20050;-63
2023/03/30 06:25:12;;;;;;;12.13;4.78;;;11.40;99.90;;;;;;7372458;19;20019;-63
2023/03/30 06:27:40;;;;;;;9.40;5.13;;;11.40;99.90;;;;;;7371561;19;20094;-62
2023/03/30 06:30:10;;;;;;;10.90;5.57;;;11.40;99.90;;;;;;7373630;19;20010;-62
2023/03/30 06:32:38;;;;;;;;;;;11.50;99.90;;;;;;7372164;19;20281;-63
2023/03/30 06:35:38;;;;;;;13.88;6.10;;;11.50;99.90;;;;;;7373002;19;19929;-64
2023/03/30 06:38:04;;;;;;;13.18;6.25;;;11.60;99.90;;;;;;7373083;19;20032;-64
2023/03/30 06:40:30;;;;;;;10.55;6.70;;;11.60;99.90;;;;;;7375937;19;20014;-65
2023/03/30 06:42:58;;;;;;;12.85;5.30;;;11.60;99.90;;;;;;7372842;19;20018;-66
2023/03/30 06:45:49;;;;;;;13.07;5.47;;;11.80;99.90;;;;;;7372578;19;20323;-65
2023/03/30 06:48:16;;;;;;;10.35;4.85;;;11.90;99.90;;;;;;7368432;19;20025;-66
2023/03/30 06:50:48;;;;;;;9.43;3.90;;;12.00;99.90;;;;;;7372448;19;20015;-65
2023/03/30 06:53:24;;;;;;;15.05;4.72;;;12.10;99.90;;;;;;7369163;19;21198;-66
2023/03/30 06:55:56;;;;;;;11.52;3.92;;;12.20;99.90;;;;;;7372351;19;20014;-65
2023/03/30 06:58:26;;;;;;;10.88;3.88;;;12.20;99.90;;;;;;7370032;19;20030;-64
2023/03/30 07:00:53;;;;;;;17.70;4.68;;;12.30;99.90;;;;;;7371744;19;20018;-67
2023/03/30 07:03:53;;;;;;;13.77;4.05;;;12.30;99.90;;;;;;7367891;19;20014;-67
2023/03/30 07:06:31;;;;;;;13.45;3.33;;;12.30;99.90;;;;;;7373684;19;20025;-67
2023/03/30 07:08:58;;;;;;;14.40;4.03;;;12.40;99.90;;;;;;7372070;19;20750;-67
2023/03/30 07:11:28;;;;;;;13.95;3.83;;;12.40;99.90;;;;;;7371926;19;20041;-68
2023/03/30 07:13:57;;;;;;;13.68;4.00;;;12.40;99.90;;;;;;7365837;19;20023;-67
2023/03/30 07:16:24;;;;;;;12.38;3.70;;;12.50;99.90;;;;;;7373354;19;20524;-67
2023/03/30 07:18:51;;;;;;;17.77;4.90;;;12.50;99.90;;;;;;7370600;19;20026;-67
2023/03/30 07:21:18;;;;;;;12.38;3.47;;;12.60;99.90;;;;;;7371372;19;20473;-68
2023/03/30 07:23:44;;;;;;;17.20;4.55;;;12.60;99.90;;;;;;7371377;19;20011;-68
2023/03/30 07:26:23;;;;;;;19.40;4.90;;;12.60;99.90;;;;;;7372834;19;20011;-66
2023/03/30 07:28:58;;;;;;;16.88;4.10;;;12.50;99.90;;;;;;7370782;19;20026;-67
2023/03/30 07:31:25;;;;;;;18.30;4.18;;;12.50;99.90;;;;;;7366123;19;20473;-67
2023/03/30 07:33:54;;;;;;;15.23;4.28;;;12.60;99.90;;;;;;7365388;19;20545;-67
2023/03/30 07:36:25;;;;;;;20.15;5.28;;;12.60;99.90;;;;;;7366329;19;20014;-67
2023/03/30 07:38:52;;;;;;;19.70;4.40;;;12.60;99.90;;;;;;7366703;19;21285;-68
2023/03/30 07:41:18;;;;;;;18.27;4.65;;;12.60;99.90;;;;;;7366984;19;20015;-67
2023/03/30 07:43:49;;;;;;;19.00;4.72;;;12.60;99.90;;;;;;7367807;19;20395;-67
2023/03/30 07:46:16;;;;;;;19.88;4.60;;;12.60;99.90;;;;;;7362733;19;20628;-68
2023/03/30 07:48:46;;;;;;;20.83;5.07;;;12.50;99.90;;;;;;7365724;19;20759;-69
2023/03/30 07:51:12;;;;;;;14.88;3.92;;;12.50;99.90;;;;;;7366269;19;20023;-68
2023/03/30 07:53:52;;;;;;;15.13;4.50;;;12.50;99.90;;;;;;7370444;19;20022;-68
2023/03/30 07:56:32;;;;;;;16.50;4.55;;;12.50;99.90;;;;;;7369369;19;20022;-68
2023/03/30 07:58:59;;;;;;;18.05;5.05;;;12.50;99.90;;;;;;7371467;19;20022;-68
2023/03/30 08:01:31;;;;;;;13.30;4.60;;;12.40;99.90;;;;;;7367587;19;20413;-68
2023/03/30 08:04:17;;;;;;;18.27;4.50;;;12.40;99.90;;;;;;7367852;19;20022;-68
2023/03/30 08:06:43;;;;;;;18.08;4.85;;;12.30;99.90;;;;;;7369186;19;20038;-68
2023/03/30 08:09:11;;;;;;;19.67;4.97;;;12.30;99.90;;;;;;7367769;19;20014;-68
2023/03/30 08:11:38;;;;;;;22.73;4.85;;;12.30;99.90;;;;;;7370585;19;20022;-69
2023/03/30 08:14:05;;;;;;;19.08;4.57;;;12.30;99.90;;;;;;7367792;19;20812;-68
2023/03/30 08:16:34;;;;;;;16.38;4.78;;;12.30;99.90;;;;;;7369568;19;20445;-68
2023/03/30 08:19:01;;;;;;;19.83;4.75;;;12.40;99.90;;;;;;7373093;19;20763;-68
2023/03/30 08:21:27;;;;;;;20.17;5.05;;;12.40;99.90;;;;;;7367817;19;20026;-68
2023/03/30 08:23:56;;;;;;;20.50;4.20;;;12.40;99.90;;;;;;7365299;19;20029;-68
2023/03/30 08:26:23;;;;;;;18.30;4.70;;;12.40;99.90;;;;;;7368631;19;20010;-68
2023/03/30 08:28:50;;;;;;;25.05;5.53;;;12.30;99.90;;;;;;7367420;19;20057;-68
2023/03/30 08:31:17;;;;;;;19.60;5.32;;;12.20;99.90;;;;;;7365058;19;20022;-68
2023/03/30 08:33:44;;;;;;;23.27;6.07;;;12.20;99.90;;;;;;7367285;19;20024;-68
2023/03/30 08:36:11;;;;;;;21.35;5.32;;;12.20;99.90;;;;;;7366156;19;20018;-67
2023/03/30 08:38:39;;;;;;;22.73;6.05;;;12.10;99.90;;;;;;7366369;19;20355;-67
2023/03/30 08:41:20;;;;;;;22.52;5.55;;;12.10;99.90;;;;;;7367435;19;20015;-67
2023/03/30 08:44:14;;;;;;;23.67;5.57;;;12.00;99.90;;;;;;7365409;19;20018;-67
2023/03/30 08:46:43;;;;;;;23.52;6.38;;;11.90;99.90;;;;;;7368733;19;20295;-67
2023/03/30 08:49:16;;;;;;;27.10;5.78;;;11.90;99.90;;;;;;7366533;19;20681;-67
2023/03/30 08:51:45;;;;;;;17.13;4.53;;;11.90;99.90;;;;;;7369633;19;20820;-66
2023/03/30 08:54:16;;;;;;;23.88;6.47;;;11.90;99.90;;;;;;7365723;19;20025;-67
2023/03/30 08:56:51;;;;;;;24.75;5.70;;;12.00;99.90;;;;;;7369930;19;20716;-67
2023/03/30 08:59:30;;;;;;;21.60;5.25;;;12.00;99.90;;;;;;7379364;19;20099;-67
2023/03/30 09:02:13;;;;;;;19.73;5.60;;;12.10;99.90;;;;;;7377362;19;20378;-67
2023/03/30 09:05:05;;;;;;;25.02;5.88;;;12.10;99.90;;;;;;7376364;19;20853;-67
2023/03/30 09:07:42;;;;;;;27.25;6.55;;;12.10;99.90;;;;;;7379686;19;20485;-66
2023/03/30 09:10:13;;;;;;;20.13;5.15;;;12.20;99.90;;;;;;7376170;19;20026;-67
2023/03/30 09:12:47;;;;;;;26.35;6.53;;;12.40;99.90;;;;;;7372734;19;20033;-67
2023/03/30 09:15:35;;;;;;;23.67;6.30;;;12.70;99.90;;;;;;7374029;19;20029;-67
2023/03/30 09:18:21;;;;;;;22.90;4.93;;;12.80;99.90;;;;;;7376001;19;20018;-67
2023/03/30 09:20:51;;;;;;;16.70;5.22;;;13.40;99.90;;;;;;7376540;19;20068;-67
2023/03/30 09:23:17;;;;;;;18.70;4.43;;;13.90;99.90;;;;;;7372615;19;20094;-67
2023/03/30 09:26:10;;;;;;;19.63;4.47;;;14.10;99.90;;;;;;7373649;19;20029;-69
2023/03/30 09:29:02;;;;;;;20.88;4.88;;;14.00;99.90;;;;;;7373221;19;20046;-67
2023/03/30 09:31:43;;;;;;;16.48;4.88;;;13.60;99.90;;;;;;7373635;19;20014;-67
2023/03/30 09:34:28;;;;;;;19.77;4.15;;;13.50;99.90;;;;;;7370697;19;20014;-66
2023/03/30 09:37:20;;;;;;;22.10;4.85;;;13.30;99.90;;;;;;7374507;19;20050;-67
2023/03/30 09:39:49;;;;;;;16.65;4.30;;;13.40;99.90;;;;;;7370423;19;20015;-67
2023/03/30 09:42:57;;;;;;;16.27;4.15;;;13.50;99.90;;;;;;7372804;19;20029;-67
2023/03/30 09:45:30;;;;;;;19.00;4.28;;;13.90;99.90;;;;;;7373041;19;20014;-67
2023/03/30 09:48:03;;;;;;;13.00;3.50;;;14.60;99.90;;;;;;7372172;19;20035;-67
2023/03/30 09:50:30;;;;;;;14.68;3.30;;;14.70;99.90;;;;;;7372592;19;20023;-67
2023/03/30 09:53:26;;;;;;;15.68;3.35;;;14.70;99.90;;;;;;7373373;19;20499;-67
2023/03/30 09:56:00;;;;;;;17.80;3.83;;;14.70;99.90;;;;;;7373945;19;20018;-67
2023/03/30 09:58:29;;;;;;;18.27;3.60;;;14.70;99.90;;;;;;7374013;19;20023;-67
2023/03/30 10:01:11;;;;;;;19.70;4.00;;;14.40;99.90;;;;;;7374431;19;20097;-67
2023/03/30 10:03:38;;;;;;;12.23;3.60;;;14.10;99.90;;;;;;7375795;19;20025;-67
2023/03/30 10:06:06;;;;;;;13.70;3.53;;;13.90;99.90;;;;;;7372048;19;20873;-66
2023/03/30 10:08:48;;;;;;;13.20;3.53;;;13.80;99.90;;;;;;7371554;19;20030;-69
2023/03/30 10:11:42;;;;;;;16.15;3.58;;;13.70;99.90;;;;;;7374036;19;20797;-66
2023/03/30 10:14:17;;;;;;;13.65;3.40;;;13.60;99.90;;;;;;7368472;19;20021;-67
2023/03/30 10:16:44;;;;;;;18.70;3.53;;;13.70;99.90;;;;;;7376148;19;20094;-66
2023/03/30 10:19:20;;;;;;;16.52;3.38;;;13.60;99.90;;;;;;7369628;19;20022;-66
2023/03/30 10:21:51;;;;;;;12.02;3.55;;;13.60;99.90;;;;;;7373272;19;20022;-66
2023/03/30 10:24:21;;;;;;;11.10;2.53;;;13.70;99.90;;;;;;7370266;19;20015;-66
2023/03/30 10:26:51;;;;;;;17.65;3.35;;;13.90;99.90;;;;;;7377756;19;20374;-67
2023/03/30 10:29:21;;;;;;;9.93;2.83;;;14.00;99.90;;;;;;7362882;19;20489;-67
2023/03/30 10:31:52;;;;;;;13.65;3.58;;;14.10;99.90;;;;;;7371938;19;20046;-67
2023/03/30 10:34:39;;;;;;;12.00;2.45;;;13.90;99.90;;;;;;7362490;19;20024;-67
2023/03/30 10:37:12;;;;;;;15.88;3.55;;;14.00;99.90;;;;;;7367825;19;20456;-67
2023/03/30 10:39:41;;;;;;;13.95;3.00;;;14.10;99.90;;;;;;7372725;19;20029;-66
2023/03/30 10:42:14;;;;;;;20.13;4.13;;;14.20;99.90;;;;;;7374031;19;20017;-67
2023/03/30 10:44:44;;;;;;;13.70;3.78;;;14.30;99.90;;;;;;7369212;19;20615;-67
2023/03/30 10:47:41;;;;;;;14.82;3.42;;;14.20;99.90;;;;;;7368089;19;20018;-67
2023/03/30 10:50:18;;;;;;;15.27;3.17;;;14.30;99.90;;;;;;7370366;19;20583;-68
2023/03/30 10:53:28;;;;;;;18.30;4.00;;;14.50;99.90;;;;;;7372981;19;20021;-67
2023/03/30 10:56:06;;;;;;;17.55;3.15;;;14.80;99.90;;;;;;7370521;19;20015;-66
2023/03/30 10:58:54;;;;;;;14.65;3.38;;;16.10;99.90;;;;;;7372189;19;20015;-66
2023/03/30 11:01:30;;;;;;;15.70;3.50;;;15.70;99.90;;;;;;7372532;19;20025;-66
2023/03/30 11:04:02;;;;;;;12.40;2.90;;;15.60;99.90;;;;;;7367612;19;20029;-67
2023/03/30 11:06:37;;;;;;;12.52;3.13;;;15.40;99.90;;;;;;7373053;19;20108;-67
2023/03/30 11:09:09;;;;;;;11.07;2.80;;;15.20;99.90;;;;;;7371057;19;20111;-67
2023/03/30 11:11:54;;;;;;;10.40;3.20;;;15.40;99.90;;;;;;7368410;19;20018;-67
2023/03/30 11:14:43;;;;;;;12.20;2.80;;;15.30;99.90;;;;;;7367735;19;20018;-66
2023/03/30 11:17:19;;;;;;;13.77;3.10;;;15.70;99.90;;;;;;7367195;19;20022;-67
2023/03/30 11:19:50;;;;;;;12.02;3.00;;;15.90;99.90;;;;;;7369311;19;20024;-66
2023/03/30 11:22:34;;;;;;;12.15;4.00;;;15.80;99.90;;;;;;7369765;19;20085;-67
2023/03/30 11:25:08;;;;;;;11.35;2.90;;;15.60;99.90;;;;;;7370797;19;20014;-66
2023/03/30 11:28:00;;;;;;;13.85;3.03;;;15.70;99.90;;;;;;7372555;19;20026;-66
2023/03/30 11:30:34;;;;;;;14.23;3.97;;;15.50;99.90;;;;;;7374210;19;20094;-66
2023/03/30 11:33:04;;;;;;;14.45;3.58;;;16.30;99.90;;;;;;7368366;19;20042;-66
2023/03/30 11:35:37;;;;;;;14.77;3.95;;;17.00;99.90;;;;;;7364506;19;20786;-67
2023/03/30 11:38:26;;;;;;;16.55;3.97;;;16.30;99.90;;;;;;7369894;19;20014;-67
2023/03/30 11:41:12;;;;;;;18.50;5.28;;;16.30;99.90;;;;;;7364088;19;20821;-66
2023/03/30 11:43:55;;;;;;;18.15;4.65;;;16.10;99.90;;;;;;7405173;19;20394;-66
2023/03/30 11:46:38;;;;;;;16.17;4.15;;;16.90;99.90;;;;;;7399075;19;20908;-66
2023/03/30 11:49:11;;;;;;;13.88;3.38;;;17.10;99.90;;;;;;7404781;19;20025;-66
2023/03/30 11:52:04;;;;;;;14.32;3.65;;;17.30;99.90;;;;;;7403784;19;20022;-66
2023/03/30 11:54:55;;;;;;;17.98;4.55;;;17.00;99.90;;;;;;7399957;19;20058;-67
2023/03/30 11:57:50;;;;;;;15.07;3.72;;;16.90;99.90;;;;;;7396559;19;20022;-66
2023/03/30 12:00:22;;;;;;;14.27;3.78;;;17.50;99.90;;;;;;7405358;19;20018;-67
2023/03/30 12:03:15;;;;;;;19.17;4.57;;;18.10;99.90;;;;;;7400108;19;20022;-68
2023/03/30 12:05:47;;;;;;;19.15;4.43;;;18.40;99.90;;;;;;7397699;19;20022;-66
2023/03/30 12:08:38;;;;;;;17.60;4.45;;;19.00;99.90;;;;;;7403458;19;20114;-67
2023/03/30 12:11:15;;;;;;;13.43;3.50;;;17.60;99.90;;;;;;7399284;19;20364;-67
2023/03/30 12:13:41;;;;;;;15.55;3.95;;;17.10;99.90;;;;;;7401267;19;20081;-67
2023/03/30 12:16:17;;;;;;;16.13;4.25;;;16.80;99.90;;;;;;7401025;19;20015;-69
2023/03/30 12:18:54;;;;;;;19.30;3.80;;;16.30;99.90;;;;;;7404691;19;21023;-67
2023/03/30 12:21:32;;;;;;;16.63;3.90;;;16.00;99.90;;;;;;7400805;19;20022;-67
2023/03/30 12:24:22;;;;;;;21.23;4.88;;;16.00;99.90;;;;;;7398840;19;20097;-67
2023/03/30 12:26:49;;;;;;;17.65;3.80;;;16.10;99.90;;;;;;7400637;19;20050;-67
2023/03/30 12:29:17;;;;;;;17.60;4.63;;;16.60;99.90;;;;;;7398033;19;20205;-67
2023/03/30 12:31:57;;;;;;;14.23;3.55;;;17.10;99.90;;;;;;7406599;19;20030;-67
2023/03/30 12:34:31;;;;;;;17.10;3.72;;;17.20;99.90;;;;;;7402821;19;20018;-67
2023/03/30 12:36:59;;;;;;;15.15;3.97;;;16.30;99.90;;;;;;7403252;19;20015;-67
2023/03/30 12:39:32;;;;;;;18.58;4.32;;;16.50;99.90;;;;;;7401970;19;20018;-67
2023/03/30 12:42:24;;;;;;;13.68;4.15;;;16.60;99.90;;;;;;7402246;19;20025;-68
2023/03/30 12:45:22;;;;;;;18.15;4.15;;;16.60;99.90;;;;;;7403593;19;20018;-67
2023/03/30 12:47:52;;;;;;;15.73;3.95;;;17.50;99.90;;;;;;7403565;19;20018;-67
2023/03/30 12:50:18;;;;;;;16.85;5.05;;;17.20;99.90;;;;;;7402381;19;20046;-67
2023/03/30 12:53:00;;;;;;;19.40;4.55;;;16.90;99.90;;;;;;7399067;19;20018;-68
2023/03/30 12:55:26;;;;;;;21.70;5.03;;;17.40;99.90;;;;;;7368813;19;20082;-66
2023/03/30 12:58:17;;;;;;;20.38;4.95;;;17.40;99.90;;;;;;7371763;19;20396;-68
2023/03/30 13:00:49;;;;;;;19.65;5.57;;;17.70;99.90;;;;;;7372971;19;20464;-68
2023/03/30 13:03:17;;;;;;;21.80;5.28;;;17.50;99.90;;;;;;7371406;19;20037;-69
2023/03/30 13:05:48;;;;;;;19.90;4.80;;;17.20;99.90;;;;;;7368592;19;20687;-69
2023/03/30 13:08:44;;;;;;;21.77;4.78;;;16.60;99.90;;;;;;7370796;19;20026;-68
2023/03/30 13:11:12;;;;;;;18.02;4.60;;;17.10;99.90;;;;;;7373834;19;20014;-66
2023/03/30 13:13:47;;;;;;;21.27;4.65;;;17.90;99.90;;;;;;7372809;19;20059;-69
2023/03/30 13:16:34;;;;;;;16.30;4.68;;;18.10;99.90;;;;;;7370153;19;20052;-69
2023/03/30 13:19:19;;;;;;;18.17;4.20;;;18.00;99.90;;;;;;7368275;19;20057;-67
2023/03/30 13:22:09;;;;;;;21.52;4.78;;;17.80;99.90;;;;;;7369684;19;20625;-67
2023/03/30 13:24:45;;;;;;;20.80;4.55;;;17.50;99.90;;;;;;7371542;19;20405;-67
2023/03/30 13:27:17;;;;;;;18.02;4.10;;;17.00;99.90;;;;;;7370373;19;20042;-70